Time;durP1;ratioP1;P1;durP2;ratioP2;P2;SDS_P1;SDS_P2;PMS_P1;PMS_P2;Temp;Humidity;BMP_temperature;BMP_pressure;BME280_temperature;BME280_humidity;BME280_pressure;Samples;Min_cycle;Max_cycle;Signal;HPM_P1;HPM_P2
2023/05/24 00:00:21;;;;;;;11.90;3.00;;;;;;;11.99;65.31;102337.03;5133835;28;20045;-82
2023/05/24 00:02:53;;;;;;;14.13;3.47;;;;;;;11.89;66.70;102357.59;5150700;28;20028;-82
2023/05/24 00:05:24;;;;;;;12.80;3.67;;;;;;;11.88;65.75;102323.53;5151270;29;20037;-82
2023/05/24 00:07:56;;;;;;;16.67;3.63;;;;;;;12.18;65.79;102366.03;5150585;29;20102;-82
2023/05/24 00:10:27;;;;;;;13.53;3.53;;;;;;;12.14;66.59;102374.97;5133730;29;20031;-82
2023/05/24 00:12:59;;;;;;;11.97;3.50;;;;;;;11.93;65.54;102325.03;5165020;28;20074;-82
2023/05/24 00:15:30;;;;;;;11.17;4.10;;;;;;;12.21;64.80;102338.81;5157511;28;20115;-81
2023/05/24 00:18:01;;;;;;;14.57;3.70;;;;;;;12.03;65.32;102311.50;5171430;28;20110;-82
2023/05/24 00:20:33;;;;;;;10.53;3.13;;;;;;;12.04;65.56;102321.13;5155096;28;20784;-80
2023/05/24 00:23:04;;;;;;;12.53;3.57;;;;;;;12.26;65.51;102351.72;5164792;28;20035;-81
2023/05/24 00:25:35;;;;;;;13.00;3.70;;;;;;;12.03;66.88;102354.38;5149091;28;20089;-80
2023/05/24 00:28:07;;;;;;;16.23;3.23;;;;;;;12.08;65.72;102334.03;5160471;28;20567;-80
2023/05/24 00:30:39;;;;;;;15.57;3.73;;;;;;;12.04;67.12;102353.47;5172210;28;20034;-80
2023/05/24 00:33:11;;;;;;;11.87;3.13;;;;;;;11.84;67.79;102346.41;5157422;28;20185;-80
2023/05/24 00:35:42;;;;;;;10.43;3.07;;;;;;;11.82;67.21;102317.59;5161796;28;20598;-81
2023/05/24 00:38:14;;;;;;;13.20;3.57;;;;;;;11.74;67.46;102314.44;5162326;28;20125;-81
2023/05/24 00:40:45;;;;;;;14.37;3.70;;;;;;;11.74;67.21;102306.56;5151439;28;20818;-81
2023/05/24 00:43:17;;;;;;;19.10;4.73;;;;;;;11.78;68.06;102331.75;5148847;29;20062;-81
2023/05/24 00:46:15;;;;;;;14.10;2.37;;;;;;;11.84;68.02;102339.41;5158027;28;20035;-80
2023/05/24 00:48:48;;;;;;;16.50;4.13;;;;;;;11.28;70.33;102299.66;5150912;28;20054;-79
2023/05/24 00:51:20;;;;;;;13.00;4.37;;;;;;;11.35;69.88;102303.75;5163165;28;20117;-80
2023/05/24 00:53:51;;;;;;;10.27;3.13;;;;;;;11.25;69.51;102276.16;5214079;28;20479;-79
2023/05/24 00:56:23;;;;;;;12.17;3.33;;;;;;;11.15;70.60;102280.06;5148198;29;20115;-79
2023/05/24 00:58:55;;;;;;;14.80;3.67;;;;;;;11.52;69.18;102306.59;5166311;28;20045;-80
2023/05/24 01:01:29;;;;;;;10.97;3.63;;;;;;;11.52;69.35;102310.06;5168733;28;20023;-80
2023/05/24 01:04:01;;;;;;;;;;;;;;;12.24;64.76;102340.44;5163575;28;20065;-80
2023/05/24 01:06:56;;;;;;;13.93;3.63;;;;;;;11.89;68.04;102338.34;5171017;28;19961;-81
2023/05/24 01:09:32;;;;;;;;;;;;;;;12.25;63.95;102335.13;5161934;28;20023;-80
2023/05/24 01:12:33;;;;;;;13.53;3.90;;;;;;;11.83;67.96;102335.06;5180498;28;19921;-80
2023/05/24 01:15:22;;;;;;;14.57;4.07;;;;;;;11.65;69.39;102331.44;5167763;28;20058;-80
2023/05/24 01:18:06;;;;;;;17.30;4.73;;;;;;;11.65;69.65;102325.31;5154212;28;20035;-80
2023/05/24 01:20:42;;;;;;;18.40;4.07;;;;;;;11.54;70.00;102321.34;5168849;28;20040;-80
2023/05/24 01:23:34;;;;;;;14.47;4.67;;;;;;;11.65;68.76;102313.06;5153304;28;20069;-80
2023/05/24 01:26:25;;;;;;;18.43;4.50;;;;;;;11.72;68.76;102330.28;5151727;29;20035;-80
2023/05/24 01:28:59;;;;;;;14.90;4.17;;;;;;;10.85;73.27;102287.31;5167268;28;20034;-80
2023/05/24 01:31:31;;;;;;;9.50;3.45;;;;;;;10.56;75.12;102277.91;5157855;28;20031;-80
2023/05/24 01:34:03;;;;;;;12.20;4.57;;;;;;;10.60;74.83;102256.75;5154552;28;20026;-80
2023/05/24 01:36:35;;;;;;;12.10;4.07;;;;;;;10.60;76.66;102322.25;5156329;28;20035;-80
2023/05/24 01:39:06;;;;;;;14.70;4.73;;;;;;;10.89;74.37;102296.72;5155035;28;20019;-80
2023/05/24 01:41:53;;;;;;;12.27;3.33;;;;;;;11.33;73.24;102336.19;5170659;28;20035;-81
2023/05/24 01:44:35;;;;;;;9.17;3.67;;;;;;;11.05;75.26;102329.41;5168872;28;20023;-80
2023/05/24 01:47:09;;;;;;;16.10;3.93;;;;;;;11.23;73.91;102323.44;5171109;28;20475;-80
2023/05/24 01:49:49;;;;;;;16.77;3.92;;;;;;;10.78;76.07;102283.19;5170564;28;20026;-78
2023/05/24 01:52:22;;;;;;;13.43;4.20;;;;;;;10.80;74.76;102291.84;5170291;28;20030;-78
2023/05/24 01:54:56;;;;;;;14.23;4.18;;;;;;;10.93;74.30;102284.38;5170223;28;20030;-78
2023/05/24 01:57:29;;;;;;;13.57;4.70;;;;;;;10.79;74.77;102279.66;5169556;28;20046;-78
2023/05/24 02:00:03;;;;;;;11.00;4.10;;;;;;;10.83;74.72;102283.00;5170271;28;20027;-79
2023/05/24 02:02:34;;;;;;;17.87;3.70;;;;;;;10.70;75.42;102269.53;5170226;28;20038;-79
2023/05/24 02:05:06;;;;;;;11.90;4.57;;;;;;;10.62;75.11;102264.56;5169697;28;20030;-79
2023/05/24 02:07:37;;;;;;;15.53;4.63;;;;;;;10.60;76.63;102298.69;5163762;28;20034;-79
2023/05/24 02:10:09;;;;;;;18.67;4.70;;;;;;;10.31;77.12;102290.09;5170200;28;20026;-77
2023/05/24 02:12:40;;;;;;;17.00;4.90;;;;;;;10.44;76.49;102271.31;5153131;28;20601;-79
2023/05/24 02:15:13;;;;;;;16.90;4.70;;;;;;;10.55;75.97;102279.66;5155733;28;20077;-79
2023/05/24 02:17:45;;;;;;;15.83;3.83;;;;;;;10.53;76.47;102284.09;5169742;28;20064;-79
2023/05/24 02:20:16;;;;;;;13.97;5.33;;;;;;;10.41;77.71;102285.38;5170248;28;20035;-79
2023/05/24 02:22:48;;;;;;;10.67;4.70;;;;;;;10.68;77.74;102332.47;5169815;28;20019;-79
2023/05/24 02:25:19;;;;;;;12.77;4.30;;;;;;;10.45;77.42;102279.13;5171183;28;20027;-79
2023/05/24 02:27:50;;;;;;;13.53;4.00;;;;;;;10.50;77.35;102286.84;5170370;28;20022;-80
2023/05/24 02:30:22;;;;;;;10.90;3.87;;;;;;;10.42;78.19;102300.16;5244827;28;20475;-79
2023/05/24 02:32:53;;;;;;;14.57;5.73;;;;;;;10.38;77.99;102275.00;5255124;28;20542;-80
2023/05/24 02:35:25;;;;;;;14.60;4.67;;;;;;;10.28;78.91;102284.97;5256032;28;20069;-79
2023/05/24 02:38:00;;;;;;;14.07;4.80;;;;;;;10.13;80.12;102296.81;5238539;28;20029;-79
2023/05/24 02:40:31;;;;;;;15.87;4.70;;;;;;;10.50;78.70;102320.88;5255406;28;20028;-80
2023/05/24 02:43:03;;;;;;;14.33;4.77;;;;;;;10.41;78.17;102290.59;5254597;28;20534;-79
2023/05/24 02:45:35;;;;;;;17.90;4.47;;;;;;;10.14;78.84;102267.13;5237323;28;20025;-78
2023/05/24 02:48:06;;;;;;;18.00;5.70;;;;;;;10.03;80.31;102286.69;5254523;28;20484;-79
2023/05/24 02:50:38;;;;;;;16.13;4.87;;;;;;;9.86;81.89;102287.22;5236602;28;20052;-79
2023/05/24 02:53:09;;;;;;;16.03;5.17;;;;;;;9.83;82.99;102310.88;5254651;28;20032;-79
2023/05/24 02:55:42;;;;;;;19.63;5.00;;;;;;;9.87;83.18;102296.81;5254091;28;20485;-79
2023/05/24 02:58:16;;;;;;;15.73;4.70;;;;;;;9.87;82.44;102285.47;5253804;28;20385;-79
2023/05/24 03:00:48;;;;;;;15.70;4.32;;;;;;;10.03;80.97;102280.56;5254585;28;20094;-80
2023/05/24 03:03:20;;;;;;;17.90;4.60;;;;;;;10.02;80.09;102268.38;5255288;28;20029;-81
2023/05/24 03:05:51;;;;;;;18.00;5.57;;;;;;;10.21;80.41;102304.41;5237346;28;20109;-80
2023/05/24 03:08:22;;;;;;;17.37;4.87;;;;;;;10.23;80.26;102313.03;5255210;28;20039;-80
2023/05/24 03:10:54;;;;;;;18.13;5.23;;;;;;;9.95;81.09;102272.13;5236206;28;20603;-80
2023/05/24 03:13:25;;;;;;;17.47;4.57;;;;;;;10.13;79.68;102275.88;5253793;28;20032;-79
2023/05/24 03:15:56;;;;;;;16.90;5.13;;;;;;;10.10;80.79;102286.44;5252981;28;20041;-79
2023/05/24 03:18:28;;;;;;;13.27;4.83;;;;;;;10.07;80.91;102292.63;5235902;28;20024;-78
2023/05/24 03:20:59;;;;;;;18.40;4.60;;;;;;;10.11;80.65;102283.78;5253965;28;20032;-81
2023/05/24 03:23:30;;;;;;;17.23;4.87;;;;;;;9.85;81.73;102266.34;5253237;28;20059;-80
2023/05/24 03:26:02;;;;;;;21.13;6.23;;;;;;;9.74;82.63;102258.88;5235634;28;20358;-80
2023/05/24 03:28:33;;;;;;;17.63;4.97;;;;;;;10.09;83.09;102324.03;5235789;28;20036;-79
2023/05/24 03:31:05;;;;;;;18.60;5.10;;;;;;;10.13;82.71;102323.84;5253227;28;20057;-78
2023/05/24 03:33:37;;;;;;;15.53;5.63;;;;;;;9.88;82.46;102269.72;5251915;28;20361;-79
2023/05/24 03:36:08;;;;;;;13.53;4.80;;;;;;;9.81;83.44;102278.66;5235258;28;20024;-78
2023/05/24 03:38:40;;;;;;;18.37;5.37;;;;;;;9.98;82.41;102277.25;5253660;28;20182;-78
2023/05/24 03:41:11;;;;;;;10.23;5.33;;;;;;;9.49;85.05;102265.78;5253282;28;20106;-79
2023/05/24 03:43:42;;;;;;;18.17;6.27;;;;;;;9.59;84.87;102266.31;5253650;28;20025;-80
2023/05/24 03:46:14;;;;;;;18.50;5.57;;;;;;;9.75;84.26;102292.84;5253419;28;20017;-79
2023/05/24 03:48:45;;;;;;;19.97;6.87;;;;;;;9.64;84.39;102258.31;5254265;28;20031;-79
2023/05/24 03:51:17;;;;;;;16.23;5.33;;;;;;;9.38;85.77;102263.50;5231139;28;20041;-79
2023/05/24 03:53:48;;;;;;;18.40;6.63;;;;;;;9.99;84.29;102312.97;5168924;28;20027;-79
2023/05/24 03:56:19;;;;;;;20.57;5.63;;;;;;;9.42;86.55;102286.03;5168329;28;20026;-79
2023/05/24 03:58:51;;;;;;;18.53;6.17;;;;;;;9.75;85.19;102281.50;5168257;28;20359;-79
2023/05/24 04:01:22;;;;;;;13.80;5.30;;;;;;;9.64;85.50;102280.09;5168792;28;20061;-79
2023/05/24 04:03:55;;;;;;;15.00;4.87;;;;;;;9.87;85.88;102312.50;5169056;28;20038;-79
2023/05/24 04:06:28;;;;;;;16.23;5.10;;;;;;;9.96;84.86;102305.25;5167565;28;20089;-79
2023/05/24 04:09:00;;;;;;;17.37;5.83;;;;;;;9.76;84.62;102277.97;5169036;28;20076;-79
2023/05/24 04:11:33;;;;;;;15.40;5.55;;;;;;;10.01;84.74;102313.78;5167299;28;20055;-79
2023/05/24 04:14:05;;;;;;;17.50;5.63;;;;;;;9.92;84.54;102292.25;5168688;28;20080;-80
2023/05/24 04:16:38;;;;;;;18.20;6.63;;;;;;;10.06;85.37;102317.13;5168663;28;20670;-79
2023/05/24 04:19:10;;;;;;;17.33;6.53;;;;;;;9.90;85.87;102307.16;5151659;28;20678;-79
2023/05/24 04:21:41;;;;;;;16.37;5.33;;;;;;;9.88;85.50;102288.03;5168761;28;20027;-79
2023/05/24 04:24:12;;;;;;;15.77;5.63;;;;;;;9.61;87.45;102295.91;5168977;28;20027;-79
2023/05/24 04:26:44;;;;;;;16.40;4.97;;;;;;;9.56;87.75;102287.34;5168118;28;20019;-79
2023/05/24 04:29:17;;;;;;;21.80;6.17;;;;;;;9.74;86.94;102292.88;5168321;28;20038;-79
2023/05/24 04:31:48;;;;;;;14.20;6.17;;;;;;;9.73;87.16;102278.94;5151221;28;20084;-79
2023/05/24 04:34:21;;;;;;;19.03;6.00;;;;;;;9.79;86.77;102278.72;5168616;28;20031;-80
2023/05/24 04:36:52;;;;;;;19.00;6.10;;;;;;;9.81;87.40;102291.75;5168989;28;20022;-80
2023/05/24 04:39:24;;;;;;;21.17;7.10;;;;;;;10.05;87.03;102315.41;5170659;28;20487;-79
2023/05/24 04:41:56;;;;;;;15.00;6.13;;;;;;;9.89;87.12;102283.66;5153253;28;20480;-79
2023/05/24 04:44:28;;;;;;;18.43;6.67;;;;;;;10.00;87.28;102296.41;5172153;28;20827;-79
2023/05/24 04:47:01;;;;;;;19.43;6.40;;;;;;;9.79;87.31;102265.66;5173041;28;20023;-80
2023/05/24 04:49:33;;;;;;;20.93;6.97;;;;;;;9.75;90.55;102310.28;5173284;28;20570;-81
2023/05/24 04:52:05;;;;;;;24.67;7.27;;;;;;;9.92;88.52;102297.50;5172979;28;20029;-81
2023/05/24 04:54:36;;;;;;;21.00;6.87;;;;;;;10.20;88.55;102324.50;5155393;28;20126;-79
2023/05/24 04:57:07;;;;;;;20.27;7.77;;;;;;;10.07;89.46;102321.44;5153937;28;20413;-80
2023/05/24 04:59:39;;;;;;;21.77;6.97;;;;;;;9.99;89.64;102302.50;5171855;28;20038;-79
2023/05/24 05:02:10;;;;;;;18.87;6.73;;;;;;;9.95;90.76;102308.78;5173014;28;20577;-81
2023/05/24 05:04:41;;;;;;;20.93;7.50;;;;;;;9.79;92.97;102298.81;5172558;28;20027;-81
2023/05/24 05:07:13;;;;;;;15.97;6.90;;;;;;;9.81;91.83;102270.81;5172830;28;20100;-80
2023/05/24 05:09:44;;;;;;;28.27;7.17;;;;;;;9.84;92.25;102269.88;5159117;28;20032;-79
2023/05/24 05:12:15;;;;;;;19.87;6.77;;;;;;;9.96;93.50;102292.16;5134068;28;20035;-79
2023/05/24 05:14:47;;;;;;;18.67;6.43;;;;;;;10.15;92.77;102308.09;5151523;28;20052;-80
2023/05/24 05:17:18;;;;;;;27.23;8.17;;;;;;;10.08;92.65;102293.50;5151642;28;20035;-80
2023/05/24 05:19:50;;;;;;;17.90;6.57;;;;;;;10.01;94.32;102292.84;5151915;28;20551;-80
2023/05/24 05:22:21;;;;;;;25.83;7.27;;;;;;;10.04;97.47;102311.06;5153117;28;20110;-81
2023/05/24 05:24:52;;;;;;;20.73;8.67;;;;;;;10.16;95.85;102308.03;5134576;29;20039;-80
2023/05/24 05:27:24;;;;;;;24.40;8.47;;;;;;;10.28;95.81;102317.22;5150768;28;20054;-80
2023/05/24 05:29:55;;;;;;;22.13;7.00;;;;;;;10.39;95.48;102329.94;5151101;28;20039;-80
2023/05/24 05:32:26;;;;;;;23.00;7.60;;;;;;;10.10;96.88;102287.31;5134736;28;20126;-80
2023/05/24 05:34:58;;;;;;;23.33;7.80;;;;;;;10.37;95.71;102320.41;5133959;28;20039;-79
2023/05/24 05:37:30;;;;;;;23.10;8.47;;;;;;;10.30;96.48;102301.44;5151205;29;20059;-80
2023/05/24 05:40:02;;;;;;;24.40;7.83;;;;;;;10.37;95.83;102295.09;5151730;29;20085;-80
2023/05/24 05:42:34;;;;;;;20.37;7.60;;;;;;;10.43;94.34;102283.56;5149917;28;20110;-80
2023/05/24 05:45:06;;;;;;;18.17;7.17;;;;;;;10.43;97.96;102293.16;5151316;28;20170;-81
2023/05/24 05:47:37;;;;;;;27.77;7.83;;;;;;;10.58;95.83;102294.41;5151360;28;20074;-79
2023/05/24 05:50:09;;;;;;;20.87;7.50;;;;;;;10.64;96.26;102308.16;5134870;28;20091;-81
2023/05/24 05:52:40;;;;;;;29.30;8.03;;;;;;;10.55;98.08;102308.47;5152007;28;20105;-80
2023/05/24 05:55:12;;;;;;;26.80;9.73;;;;;;;10.74;95.70;102313.03;5151419;28;20019;-81
2023/05/24 05:57:43;;;;;;;22.77;7.53;;;;;;;10.81;96.13;102311.03;5150957;28;20066;-81
2023/05/24 06:00:15;;;;;;;20.77;7.63;;;;;;;10.84;95.76;102316.19;5152902;28;20792;-81
2023/05/24 06:02:46;;;;;;;27.27;8.00;;;;;;;10.78;97.07;102319.88;5152796;29;20028;-82
2023/05/24 06:05:18;;;;;;;26.43;8.20;;;;;;;10.80;96.90;102311.97;5152709;28;20114;-81
2023/05/24 06:07:49;;;;;;;24.73;7.53;;;;;;;10.60;99.64;102298.69;5153022;29;20118;-83
2023/05/24 06:10:21;;;;;;;26.73;8.10;;;;;;;10.85;99.78;102323.13;5153176;28;20084;-81
2023/05/24 06:12:52;;;;;;;19.07;7.13;;;;;;;10.91;97.62;102303.69;5169041;28;20105;-81
2023/05/24 06:15:24;;;;;;;27.27;7.07;;;;;;;11.22;96.89;102334.00;5159216;28;20058;-80
2023/05/24 06:17:55;;;;;;;25.20;7.83;;;;;;;10.94;98.38;102308.81;5161761;28;20039;-80
2023/05/24 06:20:26;;;;;;;28.83;8.47;;;;;;;11.06;97.92;102324.09;5167182;28;20106;-80
2023/05/24 06:22:58;;;;;;;21.50;7.93;;;;;;;11.18;99.52;102328.00;5169143;28;20459;-79
2023/05/24 06:25:31;;;;;;;26.50;9.10;;;;;;;11.32;99.00;102327.47;5166033;28;20494;-80
2023/05/24 06:28:03;;;;;;;20.07;8.53;;;;;;;11.42;97.69;102332.34;5157745;28;20081;-79
2023/05/24 06:30:35;;;;;;;25.80;8.83;;;;;;;11.62;96.63;102352.56;5169396;28;20035;-78
2023/05/24 06:33:06;;;;;;;23.33;8.33;;;;;;;11.78;97.03;102365.88;5168319;28;20027;-78
2023/05/24 06:35:37;;;;;;;26.90;8.57;;;;;;;11.77;97.13;102351.06;5170158;28;20027;-78
2023/05/24 06:38:09;;;;;;;24.63;7.63;;;;;;;11.76;96.22;102338.88;5136338;28;20043;-77
2023/05/24 06:40:40;;;;;;;29.30;9.23;;;;;;;11.94;95.79;102318.00;5149028;29;20387;-77
2023/05/24 06:43:11;;;;;;;24.23;8.87;;;;;;;12.09;95.72;102325.28;5149102;29;20031;-79
2023/05/24 06:45:43;;;;;;;24.83;8.93;;;;;;;12.30;95.53;102330.53;5156120;28;20686;-77
2023/05/24 06:48:14;;;;;;;22.60;8.23;;;;;;;12.43;95.03;102311.59;5170408;28;20110;-80
2023/05/24 06:50:45;;;;;;;24.80;9.90;;;;;;;12.81;91.86;102339.72;5171806;28;20470;-80
2023/05/24 06:53:17;;;;;;;26.23;8.50;;;;;;;12.93;91.50;102314.63;5164733;28;20034;-81
2023/05/24 06:55:48;;;;;;;23.53;8.97;;;;;;;13.18;88.71;102350.28;5132129;28;20035;-78
2023/05/24 06:58:19;;;;;;;29.57;9.57;;;;;;;13.06;85.64;102335.94;5149251;28;20073;-79
2023/05/24 07:00:51;;;;;;;25.67;9.60;;;;;;;13.01;85.74;102330.91;5148287;28;20031;-78
2023/05/24 07:03:23;;;;;;;29.43;10.83;;;;;;;13.22;85.00;102333.44;5149019;28;20058;-78
2023/05/24 07:05:54;;;;;;;27.50;8.63;;;;;;;13.52;85.47;102343.47;5149210;28;20118;-80
2023/05/24 07:08:26;;;;;;;29.03;9.60;;;;;;;13.55;81.72;102343.31;5170356;28;20031;-80
2023/05/24 07:10:57;;;;;;;32.40;9.73;;;;;;;14.04;77.56;102359.38;5156066;28;20062;-78
2023/05/24 07:13:29;;;;;;;24.30;7.93;;;;;;;14.45;77.16;102341.53;5166393;28;20045;-78
2023/05/24 07:16:00;;;;;;;24.83;9.47;;;;;;;14.87;72.46;102327.00;5160889;28;20051;-78
2023/05/24 07:18:32;;;;;;;23.07;8.53;;;;;;;15.17;69.39;102341.22;5147501;29;20035;-79
2023/05/24 07:21:03;;;;;;;22.10;8.10;;;;;;;15.93;68.10;102365.16;5130456;29;20393;-77
2023/05/24 07:23:35;;;;;;;27.30;8.27;;;;;;;16.47;63.78;102370.84;5163719;28;20061;-79
2023/05/24 07:26:07;;;;;;;18.30;7.00;;;;;;;16.48;61.83;102338.16;5174353;28;20047;-78
2023/05/24 07:28:40;;;;;;;21.67;7.47;;;;;;;17.03;59.94;102355.97;5168674;28;20041;-77
2023/05/24 07:31:12;;;;;;;22.87;7.27;;;;;;;17.03;57.79;102350.69;5162217;28;20026;-77
2023/05/24 07:33:43;;;;;;;18.60;8.40;;;;;;;17.33;56.74;102349.66;5161986;28;20470;-77
2023/05/24 07:36:14;;;;;;;27.27;8.07;;;;;;;18.26;54.14;102352.44;5157953;28;20597;-77
2023/05/24 07:38:46;;;;;;;18.63;7.67;;;;;;;18.36;52.54;102345.53;5161528;28;20034;-77
2023/05/24 07:41:18;;;;;;;20.33;6.93;;;;;;;18.70;51.34;102349.44;5165268;28;20027;-77
2023/05/24 07:43:49;;;;;;;19.57;7.33;;;;;;;18.71;50.48;102344.00;5147604;29;20050;-77
2023/05/24 07:46:21;;;;;;;23.83;7.60;;;;;;;18.68;48.53;102356.66;5147880;28;20386;-78
2023/05/24 07:48:52;;;;;;;20.47;7.17;;;;;;;19.21;49.07;102353.81;5150927;28;20026;-78
2023/05/24 07:51:24;;;;;;;20.80;6.53;;;;;;;19.50;48.31;102335.78;5167703;28;20035;-77
2023/05/24 07:53:56;;;;;;;20.90;6.37;;;;;;;20.11;46.08;102339.28;5165706;28;20034;-77
2023/05/24 07:56:28;;;;;;;18.90;5.63;;;;;;;20.52;45.21;102326.34;5166260;28;20098;-78
2023/05/24 07:59:03;;;;;;;17.90;5.13;;;;;;;20.92;43.68;102335.63;5166375;28;20034;-78
2023/05/24 08:01:35;;;;;;;16.13;5.80;;;;;;;21.43;42.12;102338.66;5159648;28;20611;-78
2023/05/24 08:04:08;;;;;;;15.27;5.30;;;;;;;22.08;40.12;102359.03;5168296;28;20034;-78
2023/05/24 08:06:40;;;;;;;21.87;6.40;;;;;;;22.73;39.55;102365.09;5174570;28;20025;-79
2023/05/24 08:09:11;;;;;;;12.00;4.50;;;;;;;23.05;36.16;102356.06;5187287;28;20277;-78
2023/05/24 08:11:43;;;;;;;10.73;4.13;;;;;;;23.16;35.58;102347.03;5182626;28;20596;-78
2023/05/24 08:14:14;;;;;;;13.05;4.85;;;;;;;23.34;35.59;102373.09;5159793;28;20038;-79
2023/05/24 08:16:45;;;;;;;16.80;4.65;;;;;;;23.90;35.52;102375.19;5196251;28;20024;-78
2023/05/24 08:19:17;;;;;;;11.68;4.63;;;;;;;23.90;33.33;102377.88;5223235;28;20016;-79
2023/05/24 08:21:48;;;;;;;16.88;5.57;;;;;;;23.61;33.25;102352.84;5162372;28;20038;-79
2023/05/24 08:24:20;;;;;;;24.48;5.60;;;;;;;23.32;35.19;102375.03;5160035;28;20031;-79
2023/05/24 08:26:52;;;;;;;13.35;4.38;;;;;;;23.19;35.33;102338.78;5158973;28;20340;-79
2023/05/24 08:29:24;;;;;;;19.25;5.45;;;;;;;22.77;36.18;102342.50;5162246;28;20039;-78
2023/05/24 08:31:55;;;;;;;18.52;5.22;;;;;;;24.15;34.37;102365.72;5248670;28;20434;-78
2023/05/24 08:34:27;;;;;;;13.90;4.68;;;;;;;23.93;33.08;102353.50;5212216;28;20030;-78
2023/05/24 08:36:58;;;;;;;12.93;4.18;;;;;;;24.56;32.88;102332.44;5158920;28;20035;-77
2023/05/24 08:39:30;;;;;;;15.63;5.75;;;;;;;24.59;32.17;102337.53;5159551;28;20104;-78
2023/05/24 08:42:02;;;;;;;13.63;4.63;;;;;;;25.54;31.27;102353.34;5158373;28;20031;-78
2023/05/24 08:44:49;;;;;;;14.18;4.88;;;;;;;25.93;31.74;102352.16;5160494;28;20034;-78
2023/05/24 08:47:21;;;;;;;14.82;4.10;;;;;;;25.12;31.62;102343.13;5188223;28;20658;-78
2023/05/24 08:49:53;;;;;;;11.85;4.35;;;;;;;25.20;30.87;102323.59;5158835;28;20043;-78
2023/05/24 08:52:26;;;;;;;11.73;4.25;;;;;;;25.18;30.86;102324.75;5170553;28;20146;-77
2023/05/24 08:54:58;;;;;;;11.13;4.97;;;;;;;25.57;29.81;102324.38;5186681;28;20126;-78
2023/05/24 08:57:38;;;;;;;13.35;5.18;;;;;;;25.72;30.81;102348.00;5239555;28;20043;-77
2023/05/24 09:00:11;;;;;;;14.32;4.38;;;;;;;25.92;30.03;102331.69;5186632;28;20082;-78
2023/05/24 09:02:44;;;;;;;12.88;4.72;;;;;;;26.21;29.15;102317.91;5159392;28;20390;-78
2023/05/24 09:05:16;;;;;;;18.73;5.33;;;;;;;25.53;29.83;102343.63;5205446;28;20458;-78
2023/05/24 09:07:49;;;;;;;16.48;5.32;;;;;;;24.52;30.69;102315.81;5181150;28;20124;-79
2023/05/24 09:10:21;;;;;;;;;;;;;;;26.87;31.38;102342.50;5170497;28;20076;-79
2023/05/24 09:12:57;;;;;;;17.05;5.30;;;;;;;24.91;32.05;102337.19;5201479;28;20016;-78
2023/05/24 09:15:28;;;;;;;13.48;4.45;;;;;;;24.15;32.27;102341.63;5209471;28;20051;-79
2023/05/24 09:17:59;;;;;;;13.50;4.70;;;;;;;23.44;32.51;102307.13;5245048;28;20021;-79
2023/05/24 09:20:31;;;;;;;14.55;4.80;;;;;;;24.20;32.90;102332.31;5172432;28;20432;-78
2023/05/24 09:23:03;;;;;;;12.07;4.50;;;;;;;24.27;32.66;102304.84;5174151;28;20092;-78
2023/05/24 09:25:35;;;;;;;11.40;5.00;;;;;;;24.25;32.24;102312.16;5234112;28;20100;-78
2023/05/24 09:28:07;;;;;;;11.55;4.32;;;;;;;24.53;32.29;102311.31;5264999;28;20042;-78
2023/05/24 09:30:38;;;;;;;10.38;4.47;;;;;;;24.04;31.71;102341.78;5192850;28;20421;-78
2023/05/24 09:33:11;;;;;;;12.75;4.30;;;;;;;24.00;31.71;102332.38;5178507;28;20038;-78
2023/05/24 09:35:43;;;;;;;13.43;5.57;;;;;;;23.93;32.20;102314.22;5215679;28;20038;-78
2023/05/24 09:38:19;;;;;;;12.32;4.90;;;;;;;23.20;33.64;102321.75;5197890;28;20382;-77
2023/05/24 09:40:58;;;;;;;14.40;4.15;;;;;;;23.62;33.56;102311.75;5199566;28;20387;-77
2023/05/24 09:43:31;;;;;;;15.27;4.80;;;;;;;24.31;33.08;102342.00;5208545;28;20035;-77
2023/05/24 09:46:03;;;;;;;12.10;4.55;;;;;;;24.52;30.58;102347.97;5158718;28;20023;-76
2023/05/24 09:48:34;;;;;;;10.25;3.80;;;;;;;25.23;29.63;102320.59;5244109;28;20028;-76
2023/05/24 09:51:10;;;;;;;19.60;4.18;;;;;;;24.79;29.14;102326.66;5158207;28;20306;-77
2023/05/24 09:53:43;;;;;;;11.93;4.13;;;;;;;24.75;29.45;102314.59;5161401;28;20126;-78
2023/05/24 09:56:15;;;;;;;18.20;4.97;;;;;;;24.01;30.39;102300.13;5151222;28;20027;-78
2023/05/24 09:58:46;;;;;;;12.07;3.67;;;;;;;23.42;31.87;102306.41;5156453;28;20038;-78
2023/05/24 10:01:22;;;;;;;13.95;3.70;;;;;;;23.79;31.66;102322.72;5170226;28;20590;-78
2023/05/24 10:03:56;;;;;;;9.55;4.13;;;;;;;23.87;30.80;102328.19;5152873;28;20030;-78
2023/05/24 10:06:28;;;;;;;;;;;;;;;25.18;30.52;102336.31;5170611;28;20035;-78
2023/05/24 10:09:03;;;;;;;10.98;3.83;;;;;;;24.05;31.80;102298.00;5169992;28;19918;-78
2023/05/24 10:11:37;;;;;;;13.90;4.47;;;;;;;24.32;31.11;102308.88;5164591;28;20026;-78
2023/05/24 10:14:09;;;;;;;14.55;4.60;;;;;;;24.03;30.96;102305.31;5159449;28;20125;-77
2023/05/24 10:16:41;;;;;;;10.50;3.78;;;;;;;23.90;30.97;102316.34;5186717;28;20111;-79
2023/05/24 10:19:12;;;;;;;13.18;4.45;;;;;;;23.90;30.60;102295.78;5183088;28;20031;-78
2023/05/24 10:21:46;;;;;;;13.40;4.85;;;;;;;24.00;31.23;102317.16;5188263;28;20031;-78
2023/05/24 10:24:22;;;;;;;18.23;4.10;;;;;;;24.56;31.05;102304.84;5192283;28;20043;-78
2023/05/24 10:26:56;;;;;;;9.63;4.82;;;;;;;24.06;31.28;102313.06;5189064;28;20039;-79
2023/05/24 10:29:30;;;;;;;16.13;4.40;;;;;;;24.43;31.03;102322.09;5182280;28;20027;-78
2023/05/24 10:32:03;;;;;;;13.15;3.72;;;;;;;24.02;31.34;102314.31;5233691;28;20511;-79
2023/05/24 10:34:35;;;;;;;12.67;4.27;;;;;;;23.45;31.69;102294.63;5224054;28;20032;-78
2023/05/24 10:37:07;;;;;;;9.90;4.30;;;;;;;23.44;32.05;102298.28;5150616;28;20084;-78
2023/05/24 10:39:40;;;;;;;12.30;4.70;;;;;;;23.85;31.77;102292.69;5149396;28;20027;-78
2023/05/24 10:42:12;;;;;;;10.23;4.05;;;;;;;23.80;31.72;102276.25;5147089;28;20286;-79
2023/05/24 10:44:44;;;;;;;14.27;4.30;;;;;;;24.07;30.82;102297.84;5130323;28;20471;-79
2023/05/24 10:47:16;;;;;;;13.38;4.70;;;;;;;23.87;31.51;102292.56;5130824;28;20065;-79
2023/05/24 10:49:56;;;;;;;10.80;3.47;;;;;;;23.87;31.13;102290.72;5147259;28;20027;-80
2023/05/24 10:52:35;;;;;;;11.30;4.05;;;;;;;23.55;31.71;102290.09;5148111;28;20371;-78
2023/05/24 10:55:08;;;;;;;11.07;3.97;;;;;;;23.30;31.73;102283.50;5146666;28;20407;-78
2023/05/24 10:57:40;;;;;;;13.90;4.10;;;;;;;23.43;31.37;102283.22;5147609;28;20069;-77
2023/05/24 11:00:26;;;;;;;13.35;4.15;;;;;;;23.53;32.45;102320.63;5147502;28;20503;-79
2023/05/24 11:03:08;;;;;;;10.57;4.05;;;;;;;23.58;32.31;102301.50;5129407;28;20347;-77
2023/05/24 11:05:46;;;;;;;12.35;3.83;;;;;;;23.43;32.60;102310.81;5147604;28;20447;-77
2023/05/24 11:08:45;;;;;;;11.65;5.00;;;;;;;23.77;32.51;102303.28;5147320;28;20027;-77
2023/05/24 11:11:25;;;;;;;11.65;3.67;;;;;;;23.62;32.71;102301.06;5144668;28;20047;-78
2023/05/24 11:13:57;;;;;;;9.02;3.53;;;;;;;23.37;32.31;102281.09;5146636;28;20030;-78
2023/05/24 11:16:35;;;;;;;16.02;4.10;;;;;;;23.05;32.83;102285.72;5146450;28;20043;-78
2023/05/24 11:19:16;;;;;;;10.52;4.07;;;;;;;23.14;32.66;102318.78;5147567;28;20054;-78
2023/05/24 11:21:50;;;;;;;12.95;4.40;;;;;;;23.14;32.90;102311.63;5167643;28;20026;-78
2023/05/24 11:24:22;;;;;;;;;;;;;;;24.13;32.56;102315.97;5170430;28;20438;-78
2023/05/24 11:26:53;;;;;;;11.57;3.95;;;;;;;22.67;32.55;102283.72;5160418;28;20250;-78
2023/05/24 11:29:25;;;;;;;10.85;4.03;;;;;;;23.00;32.82;102312.03;5164675;28;20328;-78
2023/05/24 11:32:03;;;;;;;10.77;4.00;;;;;;;23.25;32.88;102307.13;5164222;28;20065;-77
2023/05/24 11:34:34;;;;;;;9.23;3.45;;;;;;;22.59;32.91;102302.22;5166690;28;20038;-78
2023/05/24 11:37:06;;;;;;;9.70;3.67;;;;;;;23.12;32.81;102308.25;5166989;28;20031;-78
2023/05/24 11:39:38;;;;;;;15.98;4.38;;;;;;;22.43;33.55;102270.72;5166242;28;20026;-78
2023/05/24 11:42:09;;;;;;;14.90;3.45;;;;;;;22.47;33.08;102278.31;5149957;28;20027;-79
2023/05/24 11:44:40;;;;;;;14.55;3.45;;;;;;;22.75;32.66;102295.53;5165862;28;20410;-79